Aérodrome de Condom - Valence-sur-Baïse

METAR LFBA TAF LFBA
4 °C
°C
-
°C
35m
Idade
08:35:11
LT
07:35
UTC
0 ft

1.000

2.000

3.000

4.000

5.000

OVC 3.300
VFR
<?= Yii::t('app', 'Wind direction') ?> <?= Yii::t('app', 'of'); ?>
300°
18:01
Pôr-do-sol
81%
Humidade
Tesoura de Vento
Fechado/Neve
Alcance visual RWY
Condição RWY
Vert. visibilidade
Min. visibilidade
CAVOK
Tendência
Correcção
Relatório especial
1024 hPa
QNH
METAR LFBA 280700Z AUTO 30007KT 9999 OVC033 04/01 Q1024 TEMPO BKN010
Nublado
1 kt
1 kt
08:00
MVFR
10 kt
09:00
MVFR
10 kt
10:00
MVFR
10 kt
11:00
VFR
10 kt
12:00
VFR
10 kt
13:00
VFR
10 kt
14:00
VFR
10 kt
10 km+
Visibilidade
3.300 ft
Tecto
7 kt
Vento
metar-taf.com/LFID

Metar-Taf.com

Decodificador visual

Nós e terceiros acompanhamos seu comportamento na internet em nosso site com cookies. Se você continuar, nós assumimos que você concorda com nosso política de cookies.